METAR Data
IDs: Format: Raw Decoded Include TAF

Data at: 0741 UTC 18 Sep 2021

FAUT 180700Z 02004KT 9999 SCT025 12/06 Q1031